createdAt,value
2017-07-19T00:00:32.440Z,87.20
2017-07-19T00:03:01.007Z,86.60
2017-07-19T00:05:29.430Z,86.10
2017-07-19T00:07:57.832Z,85.90
2017-07-19T00:10:26.836Z,86.10
2017-07-19T00:12:55.227Z,86.60
2017-07-19T00:15:23.614Z,86.60
2017-07-19T00:17:52.111Z,87.00
2017-07-19T00:20:20.513Z,87.00
2017-07-19T00:22:48.920Z,87.70
2017-07-19T00:25:17.698Z,88.00
2017-07-19T00:27:46.882Z,88.40
2017-07-19T00:30:15.311Z,88.40
2017-07-19T00:32:43.737Z,88.30
2017-07-19T00:35:12.134Z,88.30
2017-07-19T00:37:41.293Z,89.20
2017-07-19T00:40:10.238Z,89.10
2017-07-19T00:42:38.642Z,89.50
2017-07-19T00:45:07.062Z,89.60
2017-07-19T00:47:36.470Z,90.00
2017-07-19T00:50:05.613Z,89.50
2017-07-19T00:52:34.009Z,89.50
2017-07-19T00:55:02.719Z,89.40
2017-07-19T00:57:31.125Z,89.50
2017-07-19T00:59:59.511Z,89.30
2017-07-19T01:02:28.007Z,89.30
2017-07-19T01:04:56.491Z,88.70
2017-07-19T01:07:24.934Z,89.70
2017-07-19T01:09:53.544Z,89.50
2017-07-19T01:12:21.962Z,89.80
2017-07-19T01:14:50.388Z,89.80
2017-07-19T01:17:18.990Z,89.60
2017-07-19T01:19:47.394Z,89.60
2017-07-19T01:22:15.795Z,89.50
2017-07-19T01:24:44.359Z,89.00
2017-07-19T01:27:12.749Z,89.20
2017-07-19T01:29:41.159Z,89.20
2017-07-19T01:32:09.727Z,90.00
2017-07-19T01:34:38.146Z,90.10
2017-07-19T01:37:06.561Z,90.00
2017-07-19T01:39:35.070Z,90.30
2017-07-19T01:42:03.465Z,90.20
2017-07-19T01:44:31.512Z,90.50
2017-07-19T01:47:00.007Z,90.60
2017-07-19T01:49:28.408Z,90.40
2017-07-19T01:51:56.829Z,90.80
2017-07-19T01:54:25.335Z,90.50
2017-07-19T01:56:53.051Z,91.00
2017-07-19T01:59:21.528Z,91.30
2017-07-19T02:01:49.997Z,91.50
2017-07-19T02:04:23.830Z,91.40
2017-07-19T02:06:52.714Z,91.80
2017-07-19T02:09:20.774Z,92.20
2017-07-19T02:11:48.827Z,92.10
2017-07-19T02:14:17.235Z,92.50
2017-07-19T02:16:45.624Z,92.60
2017-07-19T02:19:14.017Z,92.90
2017-07-19T02:21:42.522Z,93.20
2017-07-19T02:24:11.679Z,93.50
2017-07-19T02:26:40.082Z,93.50
2017-07-19T02:29:09.269Z,93.90
2017-07-19T02:31:38.429Z,93.40
2017-07-19T02:34:06.827Z,93.70
2017-07-19T02:36:35.283Z,93.40
2017-07-19T02:39:03.334Z,93.60
2017-07-19T02:41:31.707Z,93.80
2017-07-19T02:44:00.111Z,93.70
2017-07-19T02:46:28.500Z,94.10
2017-07-19T02:48:56.548Z,94.80
2017-07-19T02:51:24.967Z,95.00
2017-07-19T02:53:53.370Z,94.60
2017-07-19T02:56:22.528Z,94.80
2017-07-19T02:58:51.168Z,94.80
2017-07-19T03:01:19.570Z,95.30
2017-07-19T03:03:47.962Z,95.10
2017-07-19T03:06:16.809Z,94.90
2017-07-19T03:08:45.206Z,95.40
2017-07-19T03:11:13.610Z,95.20
2017-07-19T03:13:42.132Z,95.40
2017-07-19T03:16:11.288Z,95.30
2017-07-19T03:18:39.700Z,95.60
2017-07-19T03:21:08.904Z,95.20
2017-07-19T03:23:38.054Z,95.90
2017-07-19T03:26:06.449Z,95.90
2017-07-19T03:28:34.851Z,96.10
2017-07-19T03:31:04.016Z,96.30
2017-07-19T03:33:32.424Z,96.30
2017-07-19T03:36:01.710Z,96.30
2017-07-19T03:38:30.114Z,96.30
2017-07-19T03:40:58.511Z,96.30
2017-07-19T03:43:27.184Z,96.50
2017-07-19T03:45:55.582Z,96.60
2017-07-19T03:48:23.993Z,96.40
2017-07-19T03:50:52.650Z,96.20
2017-07-19T03:53:21.049Z,96.60
2017-07-19T03:55:49.443Z,96.60
2017-07-19T03:58:17.669Z,96.70
2017-07-19T04:00:46.076Z,97.10
2017-07-19T04:03:14.476Z,97.10
2017-07-19T04:05:43.133Z,97.10
2017-07-19T04:08:11.524Z,97.20
2017-07-19T04:10:39.919Z,96.30
2017-07-19T04:13:08.377Z,96.30
2017-07-19T04:15:36.783Z,96.10
2017-07-19T04:18:05.173Z,95.50
2017-07-19T04:20:34.365Z,95.10
2017-07-19T04:23:03.555Z,94.70
2017-07-19T04:25:31.942Z,94.70
2017-07-19T04:28:01.158Z,93.80
2017-07-19T04:30:29.561Z,93.50
2017-07-19T04:32:57.951Z,93.00
2017-07-19T04:35:26.356Z,92.70
2017-07-19T04:37:54.746Z,91.50
2017-07-19T04:40:23.137Z,92.00
2017-07-19T04:42:51.746Z,91.70
2017-07-19T04:45:20.797Z,90.70
2017-07-19T04:47:49.185Z,91.30
2017-07-19T04:50:18.609Z,90.80
2017-07-19T04:52:47.009Z,90.80
2017-07-19T04:55:15.421Z,89.70
2017-07-19T04:57:43.810Z,88.80
2017-07-19T05:00:12.197Z,88.50
2017-07-19T05:02:41.368Z,86.40
2017-07-19T05:05:09.976Z,85.70
2017-07-19T05:07:38.378Z,85.60
2017-07-19T05:10:06.790Z,87.50
2017-07-19T05:12:35.224Z,87.50
2017-07-19T05:15:04.385Z,85.80
2017-07-19T05:17:32.784Z,85.70
2017-07-19T05:20:01.320Z,84.70
2017-07-19T05:22:29.727Z,84.00
2017-07-19T05:24:58.115Z,84.10
2017-07-19T05:27:26.533Z,83.20
2017-07-19T05:29:54.983Z,82.60
2017-07-19T05:32:23.379Z,82.50
2017-07-19T05:34:52.660Z,82.40
2017-07-19T05:37:21.050Z,82.30
2017-07-19T05:39:50.226Z,84.30
2017-07-19T05:42:18.675Z,84.20
2017-07-19T05:44:47.054Z,83.70
2017-07-19T05:47:15.458Z,81.00
2017-07-19T05:49:44.284Z,80.80
2017-07-19T05:52:12.689Z,78.40
2017-07-19T05:54:41.094Z,78.60
2017-07-19T05:57:09.615Z,78.50
2017-07-19T05:59:38.778Z,75.00
2017-07-19T06:02:07.174Z,74.90
2017-07-19T06:04:36.370Z,75.90
2017-07-19T06:07:04.760Z,75.90
2017-07-19T06:09:33.929Z,73.80
2017-07-19T06:12:02.554Z,73.70
2017-07-19T06:14:30.952Z,71.50
2017-07-19T06:16:59.369Z,72.50
2017-07-19T06:19:28.202Z,72.90
2017-07-19T06:21:56.608Z,74.20
2017-07-19T06:24:25.003Z,73.40
2017-07-19T06:26:53.462Z,74.00
2017-07-19T06:29:21.865Z,75.30
2017-07-19T06:31:50.068Z,75.30
2017-07-19T06:34:19.491Z,74.80
2017-07-19T06:36:47.888Z,74.80
2017-07-19T06:39:16.284Z,72.90
2017-07-19T06:41:44.922Z,77.10
2017-07-19T06:44:13.342Z,71.30
2017-07-19T06:46:41.740Z,72.90
2017-07-19T06:49:10.175Z,69.50
2017-07-19T06:51:38.586Z,71.70
2017-07-19T06:54:07.006Z,71.60
2017-07-19T06:56:36.344Z,68.00
2017-07-19T06:59:04.729Z,67.90
2017-07-19T07:01:33.112Z,67.80
2017-07-19T07:04:01.985Z,68.70
2017-07-19T07:06:30.394Z,70.30
2017-07-19T07:08:59.463Z,71.90
2017-07-19T07:11:27.882Z,71.90
2017-07-19T07:13:56.274Z,70.30
2017-07-19T07:16:25.436Z,70.70
2017-07-19T07:18:53.843Z,70.60
2017-07-19T07:21:22.233Z,69.50
2017-07-19T07:23:51.382Z,70.00
2017-07-19T07:26:20.016Z,69.80
2017-07-19T07:28:48.429Z,70.00
2017-07-19T07:31:16.854Z,70.30
2017-07-19T07:33:45.470Z,66.40
2017-07-19T07:36:13.861Z,67.30
2017-07-19T07:38:42.278Z,66.20
2017-07-19T07:41:10.722Z,65.60
2017-07-19T07:43:39.117Z,65.30
2017-07-19T07:46:07.507Z,62.30
2017-07-19T07:48:35.967Z,65.90
2017-07-19T07:51:04.346Z,63.30
2017-07-19T07:53:32.753Z,62.10
2017-07-19T07:56:01.334Z,64.30
2017-07-19T07:58:29.733Z,61.80
2017-07-19T08:00:58.122Z,59.40
2017-07-19T08:03:27.536Z,60.00
2017-07-19T08:05:55.939Z,60.20
2017-07-19T08:08:24.333Z,61.10
2017-07-19T08:10:52.763Z,60.30
2017-07-19T08:13:21.921Z,59.60
2017-07-19T08:15:50.322Z,59.50
2017-07-19T08:18:19.796Z,59.60
2017-07-19T08:20:48.221Z,59.50
2017-07-19T08:23:17.384Z,57.60
2017-07-19T08:25:45.949Z,57.40
2017-07-19T08:28:14.354Z,60.10
2017-07-19T08:30:42.744Z,62.20
2017-07-19T08:33:11.945Z,58.90
2017-07-19T08:35:41.114Z,56.60
2017-07-19T08:38:09.502Z,56.50
2017-07-19T08:40:37.998Z,56.10
2017-07-19T08:43:07.168Z,57.20
2017-07-19T08:45:35.587Z,57.10
2017-07-19T08:48:04.524Z,55.40
2017-07-19T08:50:32.922Z,55.40
2017-07-19T08:53:01.309Z,53.40
2017-07-19T08:55:30.507Z,53.60
2017-07-19T08:57:58.909Z,53.50
2017-07-19T09:00:27.286Z,52.70
2017-07-19T09:02:55.879Z,55.20
2017-07-19T09:05:24.313Z,54.70
2017-07-19T09:07:52.708Z,55.30
2017-07-19T09:10:22.073Z,54.60
2017-07-19T09:12:50.449Z,54.50
2017-07-19T09:15:18.866Z,54.30
2017-07-19T09:17:48.413Z,55.80
2017-07-19T09:20:16.931Z,55.30
2017-07-19T09:22:45.409Z,55.30
2017-07-19T09:25:14.030Z,56.00
2017-07-19T09:27:42.419Z,56.70
2017-07-19T09:30:10.794Z,55.90
2017-07-19T09:32:39.214Z,56.60
2017-07-19T09:35:07.617Z,56.20
2017-07-19T09:37:36.006Z,55.20
2017-07-19T09:40:04.443Z,55.60
2017-07-19T09:42:32.817Z,54.30
2017-07-19T09:45:04.206Z,54.60
2017-07-19T09:47:32.717Z,55.10
2017-07-19T09:50:01.107Z,55.50
2017-07-19T09:52:29.492Z,56.70
2017-07-19T09:54:58.137Z,56.00
2017-07-19T09:57:27.307Z,57.50
2017-07-19T09:59:55.711Z,57.40
2017-07-19T10:02:24.971Z,54.50
2017-07-19T10:04:53.364Z,54.50
2017-07-19T10:07:21.763Z,55.50
2017-07-19T10:09:51.193Z,55.50
2017-07-19T10:12:19.588Z,55.10
2017-07-19T10:14:47.982Z,55.50
2017-07-19T10:17:16.486Z,55.90
2017-07-19T10:19:44.879Z,56.00
2017-07-19T10:22:13.269Z,55.00
2017-07-19T10:24:42.486Z,57.10
2017-07-19T10:27:10.882Z,57.00
2017-07-19T10:29:39.263Z,56.60
2017-07-19T10:32:07.861Z,56.90
2017-07-19T10:34:36.241Z,55.90
2017-07-19T10:37:04.670Z,57.20
2017-07-19T10:39:33.737Z,56.70
2017-07-19T10:42:02.138Z,59.20
2017-07-19T10:44:31.298Z,59.10
2017-07-19T10:46:59.998Z,59.20
2017-07-19T10:49:28.386Z,59.20
2017-07-19T10:51:57.539Z,62.00
2017-07-19T10:54:26.890Z,61.90
2017-07-19T10:56:55.284Z,61.90
2017-07-19T10:59:23.680Z,59.10
2017-07-19T11:01:52.868Z,60.10
2017-07-19T11:04:21.259Z,61.70
2017-07-19T11:06:49.667Z,65.00
2017-07-19T11:09:18.275Z,66.40
2017-07-19T11:11:47.430Z,65.40
2017-07-19T11:14:15.865Z,65.30
2017-07-19T11:16:45.362Z,64.10
2017-07-19T11:19:15.222Z,63.70
2017-07-19T11:21:43.622Z,63.70
2017-07-19T11:24:12.376Z,64.40
2017-07-19T11:26:40.760Z,65.00
2017-07-19T11:29:09.154Z,66.30
2017-07-19T11:31:37.560Z,66.70
2017-07-19T11:34:05.947Z,66.80
2017-07-19T11:36:35.101Z,67.90
2017-07-19T11:39:03.222Z,67.80
2017-07-19T11:41:32.370Z,69.20
2017-07-19T11:44:00.770Z,69.20
2017-07-19T11:46:29.395Z,68.70
2017-07-19T11:48:57.783Z,68.00
2017-07-19T11:51:26.172Z,65.80
2017-07-19T11:53:54.826Z,64.60
2017-07-19T11:56:24.000Z,63.40
2017-07-19T11:58:53.187Z,63.50
2017-07-19T12:01:21.620Z,63.80
2017-07-19T12:03:50.007Z,64.80
2017-07-19T12:06:18.398Z,65.70
2017-07-19T12:08:46.802Z,65.10
2017-07-19T12:11:15.205Z,66.40
2017-07-19T12:13:44.362Z,64.50
2017-07-19T12:16:12.874Z,64.50
2017-07-19T12:18:42.070Z,67.30
2017-07-19T12:21:11.246Z,68.20
2017-07-19T12:23:39.869Z,68.10
2017-07-19T12:26:08.359Z,66.80
2017-07-19T12:28:36.763Z,68.00
2017-07-19T12:31:05.334Z,68.10
2017-07-19T12:33:33.722Z,69.50
2017-07-19T12:36:02.120Z,69.20
2017-07-19T12:38:30.561Z,70.40
2017-07-19T12:40:58.949Z,68.10
2017-07-19T12:43:27.341Z,66.90
2017-07-19T12:45:55.841Z,68.80
2017-07-19T12:48:24.247Z,70.10
2017-07-19T12:50:53.421Z,68.30
2017-07-19T12:53:21.869Z,68.20
2017-07-19T12:55:50.244Z,68.80
2017-07-19T12:58:18.633Z,70.00
2017-07-19T13:00:47.266Z,69.80
2017-07-19T13:03:15.667Z,69.10
2017-07-19T13:05:44.057Z,70.70
2017-07-19T13:08:12.463Z,71.60
2017-07-19T13:10:40.877Z,72.00
2017-07-19T13:13:10.041Z,70.10
2017-07-19T13:15:39.136Z,70.00
2017-07-19T13:18:07.532Z,82.50
2017-07-19T13:20:36.686Z,96.70
2017-07-19T13:23:05.397Z,96.80
2017-07-19T13:25:33.802Z,99.90
2017-07-19T13:28:02.182Z,99.90
2017-07-19T13:30:31.369Z,99.90
2017-07-19T13:32:59.755Z,99.90
2017-07-19T13:35:28.169Z,99.90
2017-07-19T13:37:56.595Z,99.90
2017-07-19T13:40:24.999Z,99.90
2017-07-19T13:42:54.161Z,99.90
2017-07-19T13:45:22.812Z,99.90
2017-07-19T13:47:51.203Z,99.90
2017-07-19T13:50:19.609Z,99.90
2017-07-19T13:52:48.232Z,99.90
2017-07-19T13:55:17.395Z,99.90
2017-07-19T13:57:45.791Z,99.90
2017-07-19T14:00:15.246Z,99.90
2017-07-19T14:02:43.817Z,99.90
2017-07-19T14:05:12.229Z,99.90
2017-07-19T14:07:40.849Z,99.90
2017-07-19T14:10:09.323Z,99.90
2017-07-19T14:12:38.482Z,99.90
2017-07-19T14:15:06.939Z,99.90
2017-07-19T14:17:35.336Z,99.90
2017-07-19T14:20:03.393Z,99.90
2017-07-19T14:22:32.616Z,99.90
2017-07-19T14:25:01.012Z,99.90
2017-07-19T14:27:29.402Z,99.90
2017-07-19T14:29:57.843Z,99.90
2017-07-19T14:32:26.252Z,99.90
2017-07-19T14:34:55.417Z,99.90
2017-07-19T14:37:23.856Z,99.90
2017-07-19T14:39:52.246Z,99.90
2017-07-19T14:42:20.650Z,99.90
2017-07-19T14:44:49.303Z,99.90
2017-07-19T14:47:19.343Z,99.90
2017-07-19T14:49:47.739Z,99.90
2017-07-19T14:52:16.209Z,99.90
2017-07-19T14:54:44.605Z,99.90
2017-07-19T14:57:12.994Z,99.90
2017-07-19T14:59:41.631Z,99.90
2017-07-19T15:02:10.051Z,99.90
2017-07-19T15:04:38.488Z,99.90
2017-07-19T15:07:07.004Z,99.90
2017-07-19T15:09:35.393Z,99.40
2017-07-19T15:12:03.797Z,99.50
2017-07-19T15:14:32.353Z,98.80
2017-07-19T15:17:00.742Z,96.80
2017-07-19T15:19:29.143Z,97.80
2017-07-19T15:21:58.563Z,96.80
2017-07-19T15:24:26.968Z,96.70
2017-07-19T15:26:55.366Z,94.70
2017-07-19T15:29:24.032Z,95.30
2017-07-19T15:31:52.426Z,94.80
2017-07-19T15:34:20.815Z,94.60
2017-07-19T15:36:50.375Z,94.00
2017-07-19T15:39:18.766Z,94.60
2017-07-19T15:41:47.154Z,93.90
2017-07-19T15:44:15.800Z,93.00
2017-07-19T15:46:44.865Z,95.50
2017-07-19T15:49:13.267Z,94.80
2017-07-19T15:51:42.901Z,94.20
2017-07-19T15:54:11.126Z,94.20
2017-07-19T15:56:39.556Z,92.40
2017-07-19T15:59:09.421Z,89.20
2017-07-19T16:01:37.894Z,89.30
2017-07-19T16:04:06.290Z,90.00
2017-07-19T16:06:34.826Z,89.00
2017-07-19T16:09:03.053Z,91.50
2017-07-19T16:11:31.467Z,90.50
2017-07-19T16:13:59.976Z,90.80
2017-07-19T16:16:28.375Z,89.90
2017-07-19T16:18:57.570Z,91.30
2017-07-19T16:21:26.008Z,91.30
2017-07-19T16:23:54.395Z,91.60
2017-07-19T16:26:22.778Z,91.50
2017-07-19T16:28:51.123Z,92.50
2017-07-19T16:31:19.532Z,92.70
2017-07-19T16:33:48.019Z,92.50
2017-07-19T16:36:16.791Z,93.30
2017-07-19T16:38:45.189Z,92.50
2017-07-19T16:41:13.583Z,92.80
2017-07-19T16:43:42.305Z,93.20
2017-07-19T16:46:10.722Z,92.80
2017-07-19T16:48:39.114Z,93.10
2017-07-19T16:51:07.728Z,93.30
2017-07-19T16:53:36.890Z,94.00
2017-07-19T16:56:05.285Z,93.90
2017-07-19T16:58:34.079Z,94.00
2017-07-19T17:01:03.259Z,93.90
2017-07-19T17:03:31.670Z,93.90
2017-07-19T17:06:00.242Z,94.10
2017-07-19T17:08:28.625Z,93.50
2017-07-19T17:10:57.016Z,94.50
2017-07-19T17:13:25.454Z,93.90
2017-07-19T17:15:53.840Z,94.30
2017-07-19T17:18:22.239Z,94.40
2017-07-19T17:20:51.716Z,94.90
2017-07-19T17:23:20.102Z,94.80
2017-07-19T17:25:49.586Z,94.70
2017-07-19T17:28:18.070Z,94.50
2017-07-19T17:30:46.497Z,94.50
2017-07-19T17:33:14.901Z,94.70
2017-07-19T17:35:43.313Z,94.50
2017-07-19T17:38:11.729Z,94.80
2017-07-19T17:40:39.933Z,95.10
2017-07-19T17:43:08.331Z,95.00
2017-07-19T17:45:36.762Z,95.30
2017-07-19T17:48:05.214Z,95.60
2017-07-19T17:50:38.222Z,96.20
2017-07-19T17:53:06.625Z,96.10
2017-07-19T17:55:35.933Z,96.10
2017-07-19T17:58:04.345Z,96.30
2017-07-19T18:00:32.742Z,96.00
2017-07-19T18:03:01.923Z,96.50
2017-07-19T18:05:30.353Z,96.50
2017-07-19T18:08:00.624Z,96.20
2017-07-19T18:10:31.217Z,96.20
2017-07-19T18:13:00.277Z,96.20
2017-07-19T18:15:31.509Z,96.50
2017-07-19T18:17:59.898Z,96.40
2017-07-19T18:20:28.298Z,95.50
2017-07-19T18:22:56.708Z,95.10
2017-07-19T18:25:25.109Z,95.00
2017-07-19T18:27:53.547Z,94.70
2017-07-19T18:30:21.996Z,94.50
2017-07-19T18:32:50.406Z,94.50
2017-07-19T18:35:18.841Z,94.70
2017-07-19T18:37:47.875Z,94.30
2017-07-19T18:40:16.526Z,94.40
2017-07-19T18:42:44.930Z,94.30
2017-07-19T18:45:13.344Z,94.70
2017-07-19T18:47:41.737Z,94.60
2017-07-19T18:50:10.903Z,94.60
2017-07-19T18:52:39.422Z,94.40
2017-07-19T18:55:07.806Z,94.10
2017-07-19T18:57:36.976Z,94.60
2017-07-19T19:00:05.394Z,94.60
2017-07-19T19:02:33.785Z,94.80
2017-07-19T19:05:02.373Z,94.60
2017-07-19T19:07:30.802Z,94.80
2017-07-19T19:09:59.207Z,95.00
2017-07-19T19:12:31.065Z,94.90
2017-07-19T19:14:59.467Z,95.10
2017-07-19T19:17:27.870Z,95.10
2017-07-19T19:19:56.306Z,95.40
2017-07-19T19:22:24.719Z,95.60
2017-07-19T19:24:53.130Z,95.40
2017-07-19T19:27:21.527Z,95.50
2017-07-19T19:29:49.967Z,95.60
2017-07-19T19:32:18.350Z,95.80
2017-07-19T19:34:46.763Z,95.70
2017-07-19T19:37:15.947Z,96.20
2017-07-19T19:39:44.369Z,95.90
2017-07-19T19:42:12.858Z,96.80
2017-07-19T19:44:41.248Z,97.40
2017-07-19T19:47:09.646Z,97.50
2017-07-19T19:49:38.066Z,97.20
2017-07-19T19:52:06.477Z,98.00
2017-07-19T19:54:35.119Z,97.90
2017-07-19T19:57:04.290Z,97.70
2017-07-19T19:59:32.707Z,97.70
2017-07-19T20:02:01.331Z,98.40
2017-07-19T20:04:29.531Z,98.20
2017-07-19T20:06:58.341Z,98.40
2017-07-19T20:09:26.778Z,98.60
2017-07-19T20:11:55.169Z,98.90
2017-07-19T20:14:23.583Z,99.00
2017-07-19T20:16:51.958Z,98.90
2017-07-19T20:19:20.681Z,98.90
2017-07-19T20:21:49.070Z,98.90
2017-07-19T20:24:17.481Z,99.20
2017-07-19T20:26:45.873Z,99.50
2017-07-19T20:29:14.289Z,99.60
2017-07-19T20:31:42.534Z,99.60
2017-07-19T20:34:10.731Z,99.70
2017-07-19T20:36:39.161Z,99.70
2017-07-19T20:39:07.584Z,99.70
2017-07-19T20:41:35.983Z,99.70
2017-07-19T20:44:04.422Z,99.80
2017-07-19T20:46:32.849Z,99.90
2017-07-19T20:49:01.242Z,99.90
2017-07-19T20:51:29.662Z,99.90
2017-07-19T20:53:58.051Z,99.90
2017-07-19T20:56:26.726Z,99.90
2017-07-19T20:58:55.140Z,99.90
2017-07-19T21:01:23.549Z,99.90
2017-07-19T21:03:51.938Z,99.90
2017-07-19T21:06:21.102Z,99.90
2017-07-19T21:08:49.497Z,99.90
2017-07-19T21:11:17.886Z,99.90
2017-07-19T21:13:47.336Z,99.90
2017-07-19T21:16:15.741Z,99.90
2017-07-19T21:18:44.176Z,99.90
2017-07-19T21:21:12.589Z,99.90
2017-07-19T21:23:41.007Z,99.90
2017-07-19T21:26:10.588Z,99.80
2017-07-19T21:28:38.992Z,99.60
2017-07-19T21:31:08.144Z,99.00
2017-07-19T21:33:37.185Z,99.00
2017-07-19T21:36:06.337Z,98.40
2017-07-19T21:38:35.787Z,98.40
2017-07-19T21:41:04.169Z,98.40
2017-07-19T21:43:32.596Z,98.00
2017-07-19T21:46:01.005Z,97.50
2017-07-19T21:48:29.395Z,97.10
2017-07-19T21:50:58.822Z,96.50
2017-07-19T21:53:27.208Z,96.80
2017-07-19T21:55:55.627Z,96.10
2017-07-19T21:58:24.031Z,96.00
2017-07-19T22:00:53.185Z,95.90
2017-07-19T22:03:21.529Z,95.80
2017-07-19T22:05:49.917Z,95.80
2017-07-19T22:08:18.322Z,95.30
2017-07-19T22:10:46.719Z,95.20
2017-07-19T22:13:15.118Z,95.10
2017-07-19T22:15:43.909Z,94.90
2017-07-19T22:18:12.309Z,95.00
2017-07-19T22:20:40.721Z,94.80
2017-07-19T22:23:09.634Z,94.60
2017-07-19T22:25:38.019Z,94.30
2017-07-19T22:28:06.500Z,94.40
2017-07-19T22:30:34.889Z,94.30
2017-07-19T22:33:03.278Z,94.60
2017-07-19T22:35:31.682Z,94.20
2017-07-19T22:38:00.057Z,94.20
2017-07-19T22:40:28.619Z,94.10
2017-07-19T22:42:57.043Z,95.20
2017-07-19T22:45:25.432Z,95.30
2017-07-19T22:47:53.831Z,95.90
2017-07-19T22:50:22.225Z,95.90
2017-07-19T22:52:51.398Z,96.20
2017-07-19T22:55:20.431Z,96.00
2017-07-19T22:57:49.591Z,96.40
2017-07-19T23:00:18.111Z,96.40
2017-07-19T23:02:46.600Z,95.90
2017-07-19T23:05:15.180Z,95.70
2017-07-19T23:07:43.578Z,95.60
2017-07-19T23:10:11.982Z,95.60
2017-07-19T23:12:41.293Z,95.70
2017-07-19T23:15:09.696Z,95.60
2017-07-19T23:17:38.224Z,95.60
2017-07-19T23:20:06.617Z,95.70
2017-07-19T23:22:35.015Z,95.50
2017-07-19T23:25:03.419Z,95.50
2017-07-19T23:27:31.830Z,95.20
2017-07-19T23:30:00.435Z,95.10
2017-07-19T23:32:28.813Z,95.00
2017-07-19T23:34:57.198Z,94.60
2017-07-19T23:37:25.590Z,94.50
2017-07-19T23:39:53.626Z,95.70
2017-07-19T23:42:22.036Z,95.90
2017-07-19T23:44:50.427Z,96.00
2017-07-19T23:47:18.875Z,95.00
2017-07-19T23:49:47.298Z,94.80
2017-07-19T23:52:16.362Z,94.90
2017-07-19T23:54:44.883Z,94.80
2017-07-19T23:57:13.277Z,94.80
2017-07-19T23:59:41.656Z,94.80
